createdAt,value
2019-02-11T00:00:34.541Z,4.30
2019-02-11T00:03:00.746Z,4.30
2019-02-11T00:05:27.087Z,4.30
2019-02-11T00:07:53.282Z,4.20
2019-02-11T00:10:19.568Z,4.20
2019-02-11T00:12:45.767Z,4.20
2019-02-11T00:15:11.986Z,4.10
2019-02-11T00:17:38.182Z,4.10
2019-02-11T00:20:04.621Z,4.20
2019-02-11T00:22:30.913Z,4.10
2019-02-11T00:24:57.136Z,4.10
2019-02-11T00:27:23.339Z,4.10
2019-02-11T00:29:49.550Z,4.10
2019-02-11T00:32:15.839Z,4.10
2019-02-11T00:34:42.053Z,4.10
2019-02-11T00:37:08.265Z,4.00
2019-02-11T00:39:34.485Z,4.00
2019-02-11T00:42:00.691Z,4.10
2019-02-11T00:44:26.898Z,4.10
2019-02-11T00:46:53.119Z,4.10
2019-02-11T00:49:19.634Z,4.10
2019-02-11T00:51:45.850Z,4.00
2019-02-11T00:54:12.052Z,4.00
2019-02-11T00:56:38.634Z,4.10
2019-02-11T00:59:04.835Z,4.10
2019-02-11T01:01:31.250Z,4.10
2019-02-11T01:03:57.438Z,4.10
2019-02-11T01:06:23.679Z,4.00
2019-02-11T01:08:49.878Z,4.00
2019-02-11T01:11:16.403Z,4.00
2019-02-11T01:13:42.714Z,4.00
2019-02-11T01:16:08.938Z,3.90
2019-02-11T01:18:35.142Z,3.90
2019-02-11T01:21:01.446Z,3.80
2019-02-11T01:23:27.723Z,3.70
2019-02-11T01:25:53.914Z,3.70
2019-02-11T01:28:20.136Z,3.70
2019-02-11T01:30:46.337Z,3.70
2019-02-11T01:33:12.579Z,3.70
2019-02-11T01:35:38.858Z,3.70
2019-02-11T01:38:05.082Z,3.70
2019-02-11T01:40:31.284Z,3.80
2019-02-11T01:42:57.504Z,3.80
2019-02-11T01:45:23.706Z,3.80
2019-02-11T01:47:49.927Z,3.90
2019-02-11T01:50:16.130Z,3.90
2019-02-11T01:52:42.334Z,3.90
2019-02-11T01:55:08.754Z,3.90
2019-02-11T01:57:35.054Z,4.00
2019-02-11T02:00:02.008Z,4.00
2019-02-11T02:02:28.209Z,4.00
2019-02-11T02:04:54.438Z,4.00
2019-02-11T02:07:20.663Z,4.10
2019-02-11T02:09:46.879Z,4.10
2019-02-11T02:12:13.079Z,4.10
2019-02-11T02:14:39.298Z,4.10
2019-02-11T02:17:05.498Z,4.10
2019-02-11T02:19:31.714Z,4.20
2019-02-11T02:21:57.910Z,4.20
2019-02-11T02:24:24.148Z,4.20
2019-02-11T02:26:50.358Z,4.20
2019-02-11T02:29:19.361Z,4.20
2019-02-11T02:31:45.782Z,4.30
2019-02-11T02:34:12.102Z,4.30
2019-02-11T02:36:38.318Z,4.40
2019-02-11T02:39:04.718Z,4.40
2019-02-11T02:41:30.939Z,4.40
2019-02-11T02:43:57.138Z,4.40
2019-02-11T02:46:23.362Z,4.50
2019-02-11T02:48:49.566Z,4.50
2019-02-11T02:51:15.784Z,4.50
2019-02-11T02:53:41.982Z,4.50
2019-02-11T02:56:08.206Z,4.60
2019-02-11T02:58:34.410Z,4.60
2019-02-11T03:01:00.634Z,4.60
2019-02-11T03:03:26.944Z,4.60
2019-02-11T03:05:53.215Z,4.60
2019-02-11T03:08:19.478Z,4.50
2019-02-11T03:10:45.802Z,4.50
2019-02-11T03:13:12.007Z,4.50
2019-02-11T03:15:38.222Z,4.50
2019-02-11T03:18:04.431Z,4.50
2019-02-11T03:20:30.674Z,4.50
2019-02-11T03:22:56.879Z,4.50
2019-02-11T03:25:23.352Z,4.60
2019-02-11T03:27:49.601Z,4.60
2019-02-11T03:30:15.821Z,4.60
2019-02-11T03:32:42.141Z,4.60
2019-02-11T03:35:08.443Z,4.70
2019-02-11T03:37:34.662Z,4.70
2019-02-11T03:40:00.866Z,4.80
2019-02-11T03:42:27.185Z,4.80
2019-02-11T03:44:53.388Z,4.90
2019-02-11T03:47:19.598Z,4.90
2019-02-11T03:49:45.802Z,4.90
2019-02-11T03:52:12.038Z,4.90
2019-02-11T03:54:56.564Z,4.90
2019-02-11T03:57:22.890Z,4.90
2019-02-11T03:59:49.098Z,4.90
2019-02-11T04:02:15.319Z,4.90
2019-02-11T04:04:41.642Z,4.90
2019-02-11T04:07:07.838Z,4.90
2019-02-11T04:09:34.163Z,4.90
2019-02-11T04:12:00.365Z,5.00
2019-02-11T04:14:26.574Z,4.90
2019-02-11T04:16:52.779Z,4.90
2019-02-11T04:19:18.998Z,4.90
2019-02-11T04:21:45.198Z,4.90
2019-02-11T04:24:11.418Z,4.90
2019-02-11T04:26:37.614Z,4.90
2019-02-11T04:29:03.842Z,5.00
2019-02-11T04:31:30.039Z,5.00
2019-02-11T04:33:58.266Z,5.10
2019-02-11T04:36:24.358Z,5.00
2019-02-11T04:38:50.566Z,5.00
2019-02-11T04:41:16.792Z,5.10
2019-02-11T04:43:43.000Z,5.00
2019-02-11T04:46:09.210Z,5.10
2019-02-11T04:48:35.412Z,5.00
2019-02-11T04:51:01.639Z,5.10
2019-02-11T04:53:27.842Z,5.00
2019-02-11T04:55:54.069Z,5.10
2019-02-11T04:58:20.281Z,5.00
2019-02-11T05:00:46.499Z,5.10
2019-02-11T05:03:12.699Z,5.10
2019-02-11T05:05:38.924Z,5.00
2019-02-11T05:08:05.402Z,5.10
2019-02-11T05:10:32.014Z,5.00
2019-02-11T05:12:58.215Z,5.10
2019-02-11T05:15:24.449Z,5.10
2019-02-11T05:17:50.658Z,5.10
2019-02-11T05:20:16.873Z,5.00
2019-02-11T05:22:43.196Z,5.10
2019-02-11T05:25:09.505Z,5.10
2019-02-11T05:27:35.715Z,5.00
2019-02-11T05:30:03.011Z,5.00
2019-02-11T05:32:29.239Z,5.00
2019-02-11T05:34:55.746Z,5.00
2019-02-11T05:37:22.019Z,5.00
2019-02-11T05:39:48.359Z,5.00
2019-02-11T05:42:14.568Z,5.00
2019-02-11T05:44:40.787Z,5.00
2019-02-11T05:47:06.996Z,5.00
2019-02-11T05:49:33.218Z,5.00
2019-02-11T05:51:59.437Z,5.00
2019-02-11T05:54:25.676Z,5.00
2019-02-11T05:56:52.062Z,4.90
2019-02-11T05:59:18.299Z,4.90
2019-02-11T06:01:44.576Z,4.90
2019-02-11T06:04:10.818Z,5.00
2019-02-11T06:06:37.019Z,4.90
2019-02-11T06:09:04.334Z,4.90
2019-02-11T06:11:30.629Z,4.90
2019-02-11T06:13:56.838Z,4.90
2019-02-11T06:16:23.042Z,5.00
2019-02-11T06:18:49.274Z,4.90
2019-02-11T06:21:15.472Z,4.80
2019-02-11T06:23:41.673Z,4.80
2019-02-11T06:26:07.887Z,4.70
2019-02-11T06:28:34.087Z,4.70
2019-02-11T06:31:00.307Z,4.70
2019-02-11T06:33:26.511Z,4.70
2019-02-11T06:35:52.731Z,4.60
2019-02-11T06:38:18.934Z,4.60
2019-02-11T06:40:45.358Z,4.60
2019-02-11T06:43:11.557Z,4.60
2019-02-11T06:45:37.774Z,4.60
2019-02-11T06:48:03.978Z,4.60
2019-02-11T06:50:30.195Z,4.50
2019-02-11T06:52:56.388Z,4.50
2019-02-11T06:55:22.601Z,4.50
2019-02-11T06:57:48.815Z,4.50
2019-02-11T07:00:15.139Z,4.50
2019-02-11T07:02:41.343Z,4.50
2019-02-11T07:05:07.842Z,4.50
2019-02-11T07:07:34.062Z,4.50
2019-02-11T07:10:00.262Z,4.50
2019-02-11T07:12:26.491Z,4.50
2019-02-11T07:14:52.746Z,4.60
2019-02-11T07:17:18.961Z,4.70
2019-02-11T07:19:45.159Z,4.70
2019-02-11T07:22:11.385Z,4.70
2019-02-11T07:24:37.574Z,4.60
2019-02-11T07:27:03.896Z,4.70
2019-02-11T07:29:30.599Z,4.70
2019-02-11T07:31:56.810Z,4.70
2019-02-11T07:34:23.010Z,4.70
2019-02-11T07:36:49.247Z,4.80
2019-02-11T07:39:15.448Z,4.70
2019-02-11T07:41:46.566Z,4.80
2019-02-11T07:44:14.735Z,4.80
2019-02-11T07:46:41.838Z,4.80
2019-02-11T07:49:08.054Z,4.80
2019-02-11T07:51:41.957Z,4.90
2019-02-11T07:54:02.676Z,4.90
2019-02-11T07:56:28.878Z,4.90
2019-02-11T07:58:55.115Z,4.90
2019-02-11T08:01:21.303Z,4.90
2019-02-11T08:03:47.522Z,4.90
2019-02-11T08:06:13.734Z,4.90
2019-02-11T08:08:40.022Z,4.90
2019-02-11T08:11:06.229Z,5.00
2019-02-11T08:13:32.446Z,5.10
2019-02-11T08:15:58.655Z,5.10
2019-02-11T08:18:24.874Z,5.10
2019-02-11T08:20:51.077Z,5.10
2019-02-11T08:23:17.303Z,5.10
2019-02-11T08:25:43.520Z,5.10
2019-02-11T08:28:09.718Z,5.00
2019-02-11T08:30:36.047Z,5.10
2019-02-11T08:33:02.247Z,5.20
2019-02-11T08:35:29.046Z,5.10
2019-02-11T08:37:55.475Z,5.10
2019-02-11T08:40:21.690Z,5.10
2019-02-11T08:42:47.895Z,5.20
2019-02-11T08:45:14.107Z,5.10
2019-02-11T08:47:40.330Z,5.10
2019-02-11T08:50:08.435Z,5.20
2019-02-11T08:52:34.759Z,5.40
2019-02-11T08:55:00.958Z,5.50
2019-02-11T08:57:27.185Z,5.50
2019-02-11T08:59:53.411Z,5.50
2019-02-11T09:02:20.553Z,5.50
2019-02-11T09:04:46.760Z,5.50
2019-02-11T09:07:13.251Z,5.60
2019-02-11T09:09:39.458Z,5.60
2019-02-11T09:12:05.886Z,5.60
2019-02-11T09:14:32.084Z,5.60
2019-02-11T09:16:58.298Z,5.60
2019-02-11T09:19:24.494Z,5.70
2019-02-11T09:21:50.726Z,5.70
2019-02-11T09:24:16.922Z,5.90
2019-02-11T09:26:48.818Z,5.70
2019-02-11T09:29:15.021Z,5.80
2019-02-11T09:31:41.346Z,5.80
2019-02-11T09:34:07.554Z,5.80
2019-02-11T09:36:33.759Z,5.90
2019-02-11T09:38:59.974Z,6.00
2019-02-11T09:41:26.187Z,6.00
2019-02-11T09:43:52.553Z,5.90
2019-02-11T09:46:19.458Z,6.00
2019-02-11T09:48:45.678Z,6.10
2019-02-11T09:51:11.905Z,6.20
2019-02-11T09:53:38.210Z,6.20
2019-02-11T09:56:04.518Z,6.20
2019-02-11T09:58:31.554Z,6.20
2019-02-11T10:00:57.958Z,6.20
2019-02-11T10:03:24.287Z,6.20
2019-02-11T10:05:50.490Z,6.40
2019-02-11T10:08:16.874Z,6.40
2019-02-11T10:10:43.100Z,6.30
2019-02-11T10:13:09.306Z,6.30
2019-02-11T10:15:35.518Z,6.30
2019-02-11T10:18:01.723Z,6.40
2019-02-11T10:20:27.938Z,6.40
2019-02-11T10:22:54.250Z,6.50
2019-02-11T10:25:22.778Z,6.60
2019-02-11T10:27:49.578Z,6.70
2019-02-11T10:30:15.805Z,6.60
2019-02-11T10:32:56.779Z,6.60
2019-02-11T10:35:23.202Z,6.60
2019-02-11T10:37:49.407Z,6.60
2019-02-11T10:40:15.622Z,6.60
2019-02-11T10:42:41.826Z,6.80
2019-02-11T10:45:10.450Z,6.80
2019-02-11T10:47:38.159Z,6.80
2019-02-11T10:50:07.590Z,6.80
2019-02-11T10:52:33.899Z,6.80
2019-02-11T10:55:00.209Z,7.00
2019-02-11T10:57:26.618Z,6.90
2019-02-11T10:59:52.837Z,6.90
2019-02-11T11:02:19.075Z,6.70
2019-02-11T11:04:45.367Z,6.70
2019-02-11T11:07:11.795Z,6.60
2019-02-11T11:09:37.990Z,6.70
2019-02-11T11:12:04.412Z,6.70
2019-02-11T11:14:30.619Z,6.60
2019-02-11T11:16:57.037Z,6.60
2019-02-11T11:19:23.233Z,6.80
2019-02-11T11:21:49.475Z,6.80
2019-02-11T11:24:15.783Z,6.90
2019-02-11T11:26:41.999Z,7.00
2019-02-11T11:29:08.203Z,7.00
2019-02-11T11:31:34.450Z,7.10
2019-02-11T11:34:00.670Z,7.20
2019-02-11T11:36:26.969Z,7.40
2019-02-11T11:38:53.183Z,7.50
2019-02-11T11:41:19.711Z,7.40
2019-02-11T11:43:45.926Z,7.40
2019-02-11T11:46:12.134Z,7.40
2019-02-11T11:48:38.347Z,7.40
2019-02-11T11:51:04.552Z,7.50
2019-02-11T11:53:30.770Z,7.50
2019-02-11T11:56:01.937Z,7.60
2019-02-11T12:00:53.838Z,7.70
2019-02-11T12:03:20.238Z,7.50
2019-02-11T12:05:46.459Z,7.40
2019-02-11T12:08:12.856Z,7.20
2019-02-11T12:10:39.175Z,7.30
2019-02-11T12:13:21.966Z,7.50
2019-02-11T12:15:34.757Z,7.90
2019-02-11T12:18:01.043Z,8.10
2019-02-11T12:20:27.490Z,8.20
2019-02-11T12:22:53.809Z,8.10
2019-02-11T12:25:20.033Z,7.80
2019-02-11T12:27:46.351Z,7.50
2019-02-11T12:30:16.206Z,7.60
2019-02-11T12:32:42.478Z,7.50
2019-02-11T12:35:10.999Z,7.60
2019-02-11T12:37:37.490Z,7.50
2019-02-11T12:40:05.797Z,7.60
2019-02-11T12:42:32.336Z,7.70
2019-02-11T12:44:58.634Z,7.80
2019-02-11T12:47:24.860Z,7.80
2019-02-11T12:49:51.066Z,7.80
2019-02-11T12:52:17.278Z,7.70
2019-02-11T12:54:43.513Z,7.60
2019-02-11T12:57:09.820Z,7.50
2019-02-11T12:59:36.043Z,7.50
2019-02-11T13:02:02.464Z,7.50
2019-02-11T13:04:28.682Z,7.50
2019-02-11T13:06:55.010Z,7.50
2019-02-11T13:09:21.313Z,7.50
2019-02-11T13:11:47.864Z,7.50
2019-02-11T13:14:14.106Z,7.40
2019-02-11T13:16:40.333Z,7.50
2019-02-11T13:19:06.706Z,7.50
2019-02-11T13:21:33.001Z,7.40
2019-02-11T13:23:59.227Z,7.50
2019-02-11T13:26:25.441Z,7.60
2019-02-11T13:28:51.759Z,7.70
2019-02-11T13:31:18.078Z,7.80
2019-02-11T13:33:44.393Z,7.70
2019-02-11T13:36:10.739Z,7.70
2019-02-11T13:38:37.126Z,7.70
2019-02-11T13:41:03.633Z,7.70
2019-02-11T13:43:29.954Z,7.70
2019-02-11T13:45:56.263Z,7.60
2019-02-11T13:48:22.599Z,7.50
2019-02-11T13:50:48.910Z,7.50
2019-02-11T13:53:15.218Z,7.50
2019-02-11T13:55:41.466Z,7.50
2019-02-11T13:58:07.942Z,7.50
2019-02-11T14:00:35.736Z,7.50
2019-02-11T14:03:04.613Z,7.40
2019-02-11T14:05:31.621Z,7.40
2019-02-11T14:07:58.926Z,7.40
2019-02-11T14:10:25.156Z,7.30
2019-02-11T14:12:51.688Z,7.30
2019-02-11T14:15:20.550Z,7.20
2019-02-11T14:17:46.420Z,7.10
2019-02-11T14:20:26.670Z,7.10
2019-02-11T14:22:53.034Z,7.20
2019-02-11T14:25:39.384Z,7.20
2019-02-11T14:27:47.671Z,7.20
2019-02-11T14:30:18.910Z,7.20
2019-02-11T14:32:45.940Z,7.10
2019-02-11T14:35:12.965Z,7.30
2019-02-11T14:37:39.171Z,7.80
2019-02-11T14:40:08.052Z,8.50
2019-02-11T14:42:34.344Z,9.00
2019-02-11T14:45:00.666Z,9.10
2019-02-11T14:47:26.871Z,9.00
2019-02-11T14:49:53.952Z,8.70
2019-02-11T14:52:21.743Z,8.60
2019-02-11T14:54:47.963Z,8.30
2019-02-11T14:57:14.185Z,8.00
2019-02-11T14:59:40.389Z,7.60
2019-02-11T15:02:06.606Z,7.30
2019-02-11T15:04:33.002Z,6.90
2019-02-11T15:06:59.295Z,6.60
2019-02-11T15:09:25.527Z,6.30
2019-02-11T15:11:51.736Z,6.10
2019-02-11T15:14:17.947Z,5.90
2019-02-11T15:16:44.174Z,5.70
2019-02-11T15:19:10.363Z,5.50
2019-02-11T15:21:36.580Z,5.50
2019-02-11T15:24:02.786Z,5.40
2019-02-11T15:26:29.018Z,5.30
2019-02-11T15:28:55.228Z,5.20
2019-02-11T15:31:21.418Z,5.20
2019-02-11T15:33:59.466Z,5.30
2019-02-11T15:36:25.674Z,5.30
2019-02-11T15:38:51.895Z,5.50
2019-02-11T15:41:18.099Z,5.60
2019-02-11T15:43:44.411Z,5.60
2019-02-11T15:46:10.615Z,5.60
2019-02-11T15:48:42.855Z,5.60
2019-02-11T15:51:04.939Z,5.60
2019-02-11T15:53:31.164Z,5.70
2019-02-11T15:55:57.379Z,5.80
2019-02-11T15:58:23.963Z,5.80
2019-02-11T16:00:50.394Z,5.80
2019-02-11T16:03:16.615Z,5.80
2019-02-11T16:05:49.457Z,5.80
2019-02-11T16:08:11.159Z,5.80
2019-02-11T16:10:37.364Z,5.80
2019-02-11T16:13:03.558Z,5.80
2019-02-11T16:15:29.782Z,5.90
2019-02-11T16:17:55.979Z,5.90
2019-02-11T16:20:22.306Z,5.80
2019-02-11T16:22:48.507Z,5.90
2019-02-11T16:25:15.630Z,5.90
2019-02-11T16:27:42.040Z,6.00
2019-02-11T16:30:13.623Z,6.00
2019-02-11T16:32:39.826Z,5.90
2019-02-11T16:35:08.167Z,6.00
2019-02-11T16:37:34.698Z,5.90
2019-02-11T16:40:00.927Z,5.90
2019-02-11T16:42:27.462Z,5.90
2019-02-11T16:44:53.674Z,5.80
2019-02-11T16:47:19.878Z,5.80
2019-02-11T16:49:46.211Z,5.70
2019-02-11T16:52:12.406Z,5.70
2019-02-11T16:54:38.647Z,5.60
2019-02-11T16:57:04.851Z,5.60
2019-02-11T16:59:31.074Z,5.50
2019-02-11T17:01:57.271Z,5.50
2019-02-11T17:04:23.495Z,5.50
2019-02-11T17:06:49.694Z,5.50
2019-02-11T17:09:16.121Z,5.50
2019-02-11T17:11:42.322Z,5.60
2019-02-11T17:14:08.526Z,5.60
2019-02-11T17:16:34.847Z,5.50
2019-02-11T17:19:08.868Z,5.60
2019-02-11T17:21:29.288Z,5.60
2019-02-11T17:23:55.509Z,5.70
2019-02-11T17:26:22.020Z,5.70
2019-02-11T17:28:48.225Z,5.80
2019-02-11T17:31:15.146Z,5.80
2019-02-11T17:33:41.347Z,5.90
2019-02-11T17:36:07.579Z,5.90
2019-02-11T17:38:33.780Z,6.00
2019-02-11T17:41:00.098Z,5.90
2019-02-11T17:43:26.306Z,5.90
2019-02-11T17:45:52.797Z,5.90
2019-02-11T17:48:19.600Z,5.90
2019-02-11T17:50:46.191Z,5.80
2019-02-11T17:53:16.223Z,5.80
2019-02-11T17:55:42.523Z,5.80
2019-02-11T17:58:08.855Z,5.70
2019-02-11T18:00:39.854Z,5.60
2019-02-11T18:03:06.079Z,5.60
2019-02-11T18:05:32.279Z,5.50
2019-02-11T18:07:58.497Z,5.50
2019-02-11T18:10:24.691Z,5.50
2019-02-11T18:12:51.032Z,5.40
2019-02-11T18:15:17.339Z,5.40
2019-02-11T18:17:43.571Z,5.30
2019-02-11T18:20:09.874Z,5.30
2019-02-11T18:22:36.205Z,5.30
2019-02-11T18:25:04.401Z,5.20
2019-02-11T18:27:30.644Z,5.20
2019-02-11T18:29:56.850Z,5.20
2019-02-11T18:32:23.047Z,5.20
2019-02-11T18:34:49.275Z,5.10
2019-02-11T18:37:15.475Z,5.10
2019-02-11T18:39:41.686Z,5.10
2019-02-11T18:42:07.889Z,5.10
2019-02-11T18:44:34.254Z,5.00
2019-02-11T18:47:00.474Z,5.10
2019-02-11T18:49:34.184Z,5.10
2019-02-11T18:51:54.819Z,5.00
2019-02-11T18:54:21.034Z,5.00
2019-02-11T18:56:47.259Z,5.00
2019-02-11T18:59:13.484Z,5.00
2019-02-11T19:01:39.682Z,5.00
2019-02-11T19:04:06.458Z,5.00
2019-02-11T19:06:32.662Z,5.10
2019-02-11T19:08:59.318Z,5.00
2019-02-11T19:11:25.627Z,5.10
2019-02-11T19:13:51.966Z,5.00
2019-02-11T19:16:18.198Z,4.90
2019-02-11T19:18:44.403Z,4.80
2019-02-11T19:21:10.618Z,4.80
2019-02-11T19:23:36.863Z,4.80
2019-02-11T19:26:03.203Z,4.80
2019-02-11T19:28:29.391Z,4.80
2019-02-11T19:30:55.714Z,4.60
2019-02-11T19:33:21.922Z,4.50
2019-02-11T19:35:48.139Z,4.50
2019-02-11T19:38:14.355Z,4.40
2019-02-11T19:40:40.576Z,4.30
2019-02-11T19:43:06.888Z,4.30
2019-02-11T19:45:33.102Z,4.30
2019-02-11T19:47:59.298Z,4.40
2019-02-11T19:50:25.547Z,4.40
2019-02-11T19:52:51.770Z,4.40
2019-02-11T19:55:18.232Z,4.30
2019-02-11T19:57:44.646Z,4.40
2019-02-11T20:00:19.174Z,4.40
2019-02-11T20:02:46.099Z,4.40
2019-02-11T20:05:12.706Z,4.20
2019-02-11T20:07:38.922Z,4.20
2019-02-11T20:10:09.735Z,4.20
2019-02-11T20:12:35.971Z,4.30
2019-02-11T20:15:05.575Z,4.30
2019-02-11T20:17:31.794Z,4.30
2019-02-11T20:20:00.297Z,4.20
2019-02-11T20:22:26.143Z,4.20
2019-02-11T20:24:52.345Z,4.20
2019-02-11T20:27:18.598Z,4.20
2019-02-11T20:29:44.790Z,4.20
2019-02-11T20:32:10.995Z,4.10
2019-02-11T20:34:37.210Z,4.00
2019-02-11T20:37:03.410Z,3.90
2019-02-11T20:39:29.702Z,3.90
2019-02-11T20:41:55.902Z,3.90
2019-02-11T20:44:22.123Z,3.80
2019-02-11T20:46:48.348Z,3.80
2019-02-11T20:49:14.588Z,3.70
2019-02-11T20:51:40.813Z,3.60
2019-02-11T20:54:07.050Z,3.60
2019-02-11T20:56:33.258Z,3.70
2019-02-11T20:58:59.503Z,3.70
2019-02-11T21:01:25.727Z,3.80
2019-02-11T21:03:51.959Z,3.80
2019-02-11T21:06:18.165Z,3.70
2019-02-11T21:08:44.473Z,3.80
2019-02-11T21:11:12.532Z,3.70
2019-02-11T21:13:38.815Z,3.50
2019-02-11T21:16:05.018Z,3.60
2019-02-11T21:18:31.241Z,3.60
2019-02-11T21:20:57.505Z,3.60
2019-02-11T21:23:23.718Z,3.60
2019-02-11T21:25:49.935Z,3.60
2019-02-11T21:28:16.142Z,3.50
2019-02-11T21:30:42.364Z,3.40
2019-02-11T21:33:08.575Z,3.40
2019-02-11T21:35:34.786Z,3.30
2019-02-11T21:38:00.996Z,3.30
2019-02-11T21:40:27.205Z,3.20
2019-02-11T21:42:53.753Z,3.20
2019-02-11T21:45:19.970Z,3.20
2019-02-11T21:47:46.378Z,3.30
2019-02-11T21:50:26.062Z,3.40
2019-02-11T21:52:45.586Z,3.40
2019-02-11T21:55:13.701Z,3.50
2019-02-11T21:57:39.898Z,3.50
2019-02-11T22:00:12.303Z,3.50
2019-02-11T22:02:38.498Z,3.50
2019-02-11T22:05:05.406Z,3.40
2019-02-11T22:07:31.631Z,3.50
2019-02-11T22:09:57.826Z,3.40
2019-02-11T22:12:24.142Z,3.30
2019-02-11T22:14:50.347Z,3.40
2019-02-11T22:17:16.558Z,3.40
2019-02-11T22:19:42.762Z,3.40
2019-02-11T22:22:08.978Z,3.50
2019-02-11T22:24:35.195Z,3.40
2019-02-11T22:27:01.714Z,3.40
2019-02-11T22:29:27.926Z,3.40
2019-02-11T22:31:54.147Z,3.30
2019-02-11T22:34:20.351Z,3.30
2019-02-11T22:36:46.547Z,3.40
2019-02-11T22:39:12.875Z,3.30
2019-02-11T22:41:39.072Z,3.30
2019-02-11T22:44:05.301Z,3.20
2019-02-11T22:46:31.503Z,3.20
2019-02-11T22:48:57.714Z,3.20
2019-02-11T22:51:24.055Z,3.20
2019-02-11T22:53:50.270Z,3.20
2019-02-11T22:56:16.476Z,3.20
2019-02-11T22:58:42.685Z,3.10
2019-02-11T23:01:09.828Z,3.10
2019-02-11T23:03:36.241Z,3.10
2019-02-11T23:06:03.155Z,3.10
2019-02-11T23:08:29.391Z,3.10
2019-02-11T23:10:55.603Z,3.10
2019-02-11T23:13:21.809Z,3.10
2019-02-11T23:15:48.239Z,3.10
2019-02-11T23:18:14.437Z,3.10
2019-02-11T23:20:40.703Z,3.00
2019-02-11T23:23:06.959Z,3.00
2019-02-11T23:25:33.170Z,3.10
2019-02-11T23:27:59.376Z,3.10
2019-02-11T23:30:25.598Z,3.10
2019-02-11T23:32:51.902Z,3.00
2019-02-11T23:35:18.127Z,3.10
2019-02-11T23:37:44.323Z,3.10
2019-02-11T23:40:10.555Z,3.10
2019-02-11T23:42:36.754Z,3.10
2019-02-11T23:45:08.274Z,3.00
2019-02-11T23:47:34.499Z,2.90
2019-02-11T23:50:00.699Z,3.00
2019-02-11T23:52:26.955Z,3.00
2019-02-11T23:54:53.186Z,3.00
2019-02-11T23:57:19.415Z,2.90
2019-02-11T23:59:45.620Z,2.90
